createdAt,value
2019-03-30T00:01:37.153Z,1.90
2019-03-30T00:04:08.963Z,1.70
2019-03-30T00:06:39.659Z,1.70
2019-03-30T00:09:10.775Z,1.60
2019-03-30T00:11:41.700Z,1.60
2019-03-30T00:14:12.375Z,1.60
2019-03-30T00:16:42.974Z,1.70
2019-03-30T00:19:14.047Z,1.70
2019-03-30T00:21:44.788Z,1.60
2019-03-30T00:24:15.377Z,1.60
2019-03-30T00:26:46.019Z,1.60
2019-03-30T00:29:16.940Z,1.40
2019-03-30T00:31:48.846Z,1.30
2019-03-30T00:34:19.452Z,1.40
2019-03-30T00:36:50.246Z,1.20
2019-03-30T00:39:21.004Z,1.20
2019-03-30T00:41:51.786Z,1.30
2019-03-30T00:44:22.391Z,1.30
2019-03-30T00:46:53.290Z,1.10
2019-03-30T00:49:24.063Z,1.20
2019-03-30T00:51:54.961Z,1.20
2019-03-30T00:54:25.782Z,1.20
2019-03-30T00:56:56.586Z,1.30
2019-03-30T00:59:27.177Z,1.30
2019-03-30T01:01:57.998Z,1.20
2019-03-30T01:04:28.607Z,1.30
2019-03-30T01:06:59.317Z,1.40
2019-03-30T01:09:29.924Z,1.40
2019-03-30T01:12:00.554Z,1.50
2019-03-30T01:14:31.134Z,1.70
2019-03-30T01:17:01.806Z,1.60
2019-03-30T01:19:32.574Z,1.70
2019-03-30T01:22:03.269Z,1.90
2019-03-30T01:24:33.916Z,2.00
2019-03-30T01:27:05.925Z,1.90
2019-03-30T01:29:36.580Z,1.70
2019-03-30T01:32:07.398Z,1.60
2019-03-30T01:34:38.179Z,1.00
2019-03-30T01:37:08.845Z,0.50
2019-03-30T01:39:39.654Z,0.50
2019-03-30T01:42:10.246Z,0.50
2019-03-30T01:44:40.836Z,0.70
2019-03-30T01:47:11.902Z,0.70
2019-03-30T01:49:42.724Z,0.80
2019-03-30T01:52:14.304Z,0.80
2019-03-30T01:54:44.892Z,0.70
2019-03-30T01:57:15.852Z,0.60
2019-03-30T01:59:47.254Z,0.50
2019-03-30T02:02:18.061Z,0.40
2019-03-30T02:04:48.794Z,0.40
2019-03-30T02:07:19.400Z,0.50
2019-03-30T02:09:50.047Z,0.70
2019-03-30T02:12:20.968Z,0.80
2019-03-30T02:14:51.836Z,0.70
2019-03-30T02:17:22.825Z,0.60
2019-03-30T02:19:53.607Z,0.60
2019-03-30T02:22:24.313Z,0.80
2019-03-30T02:24:54.903Z,0.90
2019-03-30T02:27:25.856Z,1.10
2019-03-30T02:29:56.746Z,1.20
2019-03-30T02:32:27.431Z,1.10
2019-03-30T02:34:59.075Z,1.10
2019-03-30T02:37:32.883Z,1.00
2019-03-30T02:40:03.477Z,1.10
2019-03-30T02:42:34.167Z,1.20
2019-03-30T02:45:06.381Z,1.20
2019-03-30T02:47:37.144Z,1.00
2019-03-30T02:50:08.551Z,0.80
2019-03-30T02:52:39.239Z,0.70
2019-03-30T02:55:12.697Z,0.60
2019-03-30T02:57:43.986Z,0.50
2019-03-30T03:00:15.503Z,0.30
2019-03-30T03:02:46.085Z,0.30
2019-03-30T03:05:17.255Z,0.30
2019-03-30T03:07:48.007Z,0.30
2019-03-30T03:10:19.410Z,0.40
2019-03-30T03:12:50.050Z,0.50
2019-03-30T03:15:21.739Z,0.60
2019-03-30T03:17:52.434Z,0.70
2019-03-30T03:20:23.151Z,0.70
2019-03-30T03:22:53.797Z,0.70
2019-03-30T03:25:24.391Z,0.90
2019-03-30T03:27:55.228Z,0.90
2019-03-30T03:30:26.178Z,1.00
2019-03-30T03:32:57.148Z,1.00
2019-03-30T03:35:27.742Z,0.90
2019-03-30T03:37:58.434Z,1.00
2019-03-30T03:40:29.300Z,1.00
2019-03-30T03:42:59.905Z,0.90
2019-03-30T03:45:30.443Z,0.90
2019-03-30T03:48:01.484Z,0.80
2019-03-30T03:50:53.752Z,0.90
2019-03-30T03:53:24.570Z,0.80
2019-03-30T03:55:56.282Z,0.70
2019-03-30T03:58:28.980Z,0.60
2019-03-30T04:01:02.626Z,0.60
2019-03-30T04:03:34.594Z,0.50
2019-03-30T04:06:07.327Z,0.40
2019-03-30T04:08:41.722Z,0.30
2019-03-30T04:11:14.785Z,0.20
2019-03-30T04:13:47.758Z,0.30
2019-03-30T04:16:18.428Z,0.20
2019-03-30T04:18:49.319Z,0.10
2019-03-30T04:21:19.908Z,0.20
2019-03-30T04:23:54.272Z,-0.20
2019-03-30T04:26:23.034Z,0.10
2019-03-30T04:28:53.652Z,0.00
2019-03-30T04:31:24.643Z,-0.10
2019-03-30T04:33:55.453Z,-0.10
2019-03-30T04:36:26.043Z,-0.10
2019-03-30T04:38:56.830Z,0.00
2019-03-30T04:41:27.513Z,-0.10
2019-03-30T04:43:58.123Z,0.00
2019-03-30T04:46:28.718Z,0.00
2019-03-30T04:48:59.905Z,0.10
2019-03-30T04:51:30.683Z,0.10
2019-03-30T04:54:01.557Z,0.00
2019-03-30T04:56:32.659Z,0.20
2019-03-30T04:59:03.502Z,0.40
2019-03-30T05:01:34.097Z,0.40
2019-03-30T05:04:04.694Z,0.50
2019-03-30T05:06:35.531Z,0.50
2019-03-30T05:09:07.415Z,0.50
2019-03-30T05:11:38.078Z,0.30
2019-03-30T05:14:08.774Z,0.10
2019-03-30T05:16:41.390Z,0.10
2019-03-30T05:19:12.074Z,0.10
2019-03-30T05:21:42.717Z,0.10
2019-03-30T05:24:13.690Z,0.00
2019-03-30T05:26:44.387Z,0.00
2019-03-30T05:29:15.003Z,0.10
2019-03-30T05:31:45.666Z,0.40
2019-03-30T05:34:16.334Z,0.50
2019-03-30T05:36:46.931Z,0.70
2019-03-30T05:39:17.811Z,0.70
2019-03-30T05:41:50.048Z,0.60
2019-03-30T05:44:20.815Z,0.60
2019-03-30T05:46:51.808Z,0.60
2019-03-30T05:49:22.756Z,0.60
2019-03-30T05:51:53.307Z,0.60
2019-03-30T05:54:24.230Z,0.70
2019-03-30T05:56:54.834Z,0.90
2019-03-30T05:59:25.666Z,0.90
2019-03-30T06:01:56.609Z,1.10
2019-03-30T06:04:27.261Z,1.20
2019-03-30T06:06:57.912Z,1.30
2019-03-30T06:09:28.762Z,1.30
2019-03-30T06:11:59.378Z,1.40
2019-03-30T06:14:30.073Z,2.80
2019-03-30T06:17:00.891Z,4.90
2019-03-30T06:19:31.506Z,5.60
2019-03-30T06:22:02.094Z,5.00
2019-03-30T06:24:33.086Z,5.40
2019-03-30T06:27:04.224Z,5.00
2019-03-30T06:29:35.008Z,5.70
2019-03-30T06:32:07.275Z,6.60
2019-03-30T06:34:37.873Z,6.30
2019-03-30T06:37:08.529Z,6.60
2019-03-30T06:39:39.202Z,6.90
2019-03-30T06:42:10.035Z,5.40
2019-03-30T06:44:40.935Z,5.30
2019-03-30T06:47:11.534Z,5.00
2019-03-30T06:49:42.207Z,5.10
2019-03-30T06:52:13.025Z,5.90
2019-03-30T06:54:43.723Z,6.10
2019-03-30T06:57:14.338Z,5.60
2019-03-30T06:59:45.083Z,5.70
2019-03-30T07:02:19.348Z,5.40
2019-03-30T07:04:50.776Z,4.80
2019-03-30T07:07:23.573Z,5.30
2019-03-30T07:09:54.182Z,5.70
2019-03-30T07:12:25.639Z,5.30
2019-03-30T07:14:59.190Z,5.20
2019-03-30T07:17:31.276Z,5.40
2019-03-30T07:20:04.892Z,5.80
2019-03-30T07:22:35.520Z,5.80
2019-03-30T07:25:07.474Z,6.00
2019-03-30T07:27:38.274Z,6.40
2019-03-30T07:30:09.232Z,6.80
2019-03-30T07:32:40.142Z,6.90
2019-03-30T07:35:11.302Z,7.00
2019-03-30T07:37:42.139Z,7.10
2019-03-30T07:40:13.270Z,7.20
2019-03-30T07:42:44.546Z,7.10
2019-03-30T07:45:15.754Z,7.30
2019-03-30T07:47:46.479Z,7.50
2019-03-30T07:50:17.973Z,7.60
2019-03-30T07:52:48.632Z,7.70
2019-03-30T07:55:19.452Z,8.40
2019-03-30T07:57:50.186Z,8.40
2019-03-30T08:00:21.564Z,8.60
2019-03-30T08:02:52.247Z,8.30
2019-03-30T08:05:22.896Z,8.60
2019-03-30T08:07:53.539Z,9.10
2019-03-30T08:10:24.303Z,8.50
2019-03-30T08:12:54.896Z,9.30
2019-03-30T08:15:25.570Z,8.90
2019-03-30T08:17:56.294Z,8.90
2019-03-30T08:20:26.936Z,8.90
2019-03-30T08:22:59.511Z,8.80
2019-03-30T08:25:30.442Z,9.10
2019-03-30T08:28:01.053Z,9.40
2019-03-30T08:30:31.627Z,9.40
2019-03-30T08:33:02.523Z,9.40
2019-03-30T08:35:33.407Z,9.50
2019-03-30T08:38:04.016Z,9.40
2019-03-30T08:40:34.629Z,9.90
2019-03-30T08:43:05.446Z,9.60
2019-03-30T08:45:36.037Z,9.90
2019-03-30T08:48:07.740Z,10.30
2019-03-30T08:50:38.616Z,10.60
2019-03-30T08:53:09.503Z,10.20
2019-03-30T08:55:40.127Z,10.20
2019-03-30T08:58:10.706Z,10.70
2019-03-30T09:00:43.078Z,11.10
2019-03-30T09:03:13.908Z,10.80
2019-03-30T09:05:44.624Z,10.70
2019-03-30T09:08:15.501Z,10.70
2019-03-30T09:10:46.134Z,11.00
2019-03-30T09:13:16.982Z,10.90
2019-03-30T09:15:47.492Z,10.90
2019-03-30T09:18:18.277Z,10.90
2019-03-30T09:20:48.963Z,11.30
2019-03-30T09:23:19.917Z,11.40
2019-03-30T09:25:51.029Z,11.50
2019-03-30T09:28:21.769Z,11.60
2019-03-30T09:30:52.659Z,11.60
2019-03-30T09:33:23.370Z,11.60
2019-03-30T09:35:54.097Z,12.20
2019-03-30T09:38:25.012Z,12.20
2019-03-30T09:40:55.715Z,12.00
2019-03-30T09:43:26.343Z,12.00
2019-03-30T09:45:56.950Z,12.00
2019-03-30T09:48:27.854Z,12.50
2019-03-30T09:50:58.837Z,12.50
2019-03-30T09:53:29.787Z,12.60
2019-03-30T09:56:00.671Z,12.60
2019-03-30T09:58:31.367Z,12.90
2019-03-30T10:01:02.003Z,13.70
2019-03-30T10:03:32.738Z,13.30
2019-03-30T10:06:03.424Z,13.50
2019-03-30T10:08:34.014Z,13.60
2019-03-30T10:11:06.116Z,14.20
2019-03-30T10:13:36.805Z,14.00
2019-03-30T10:16:08.175Z,13.90
2019-03-30T10:18:38.934Z,14.00
2019-03-30T10:21:09.879Z,14.00
2019-03-30T10:23:40.820Z,14.20
2019-03-30T10:26:11.540Z,14.50
2019-03-30T10:28:47.214Z,14.40
2019-03-30T10:31:18.000Z,14.30
2019-03-30T10:33:50.238Z,14.00
2019-03-30T10:36:22.208Z,14.20
2019-03-30T10:38:52.975Z,14.70
2019-03-30T10:41:23.627Z,15.20
2019-03-30T10:43:54.324Z,14.80
2019-03-30T10:46:25.167Z,15.00
2019-03-30T10:48:56.037Z,15.00
2019-03-30T10:51:27.026Z,15.10
2019-03-30T10:53:57.902Z,15.00
2019-03-30T10:56:28.592Z,15.10
2019-03-30T10:58:59.310Z,15.10
2019-03-30T11:01:30.246Z,15.40
2019-03-30T11:04:01.024Z,15.70
2019-03-30T11:06:31.735Z,15.40
2019-03-30T11:09:02.732Z,15.70
2019-03-30T11:11:34.073Z,16.00
2019-03-30T11:14:04.773Z,15.70
2019-03-30T11:16:35.414Z,15.40
2019-03-30T11:19:06.139Z,15.70
2019-03-30T11:21:36.870Z,15.70
2019-03-30T11:24:08.496Z,15.50
2019-03-30T11:26:39.163Z,16.00
2019-03-30T11:29:10.243Z,15.90
2019-03-30T11:31:41.097Z,16.50
2019-03-30T11:34:14.834Z,16.80
2019-03-30T11:36:45.480Z,17.60
2019-03-30T11:39:16.352Z,17.90
2019-03-30T11:41:47.235Z,18.00
2019-03-30T11:44:18.355Z,17.50
2019-03-30T11:46:49.184Z,17.60
2019-03-30T11:49:21.023Z,17.90
2019-03-30T11:51:51.807Z,18.60
2019-03-30T11:54:22.487Z,18.30
2019-03-30T11:56:53.388Z,18.70
2019-03-30T11:59:24.264Z,18.60
2019-03-30T12:01:55.285Z,19.00
2019-03-30T12:04:25.968Z,19.20
2019-03-30T12:06:56.673Z,19.20
2019-03-30T12:09:27.349Z,19.50
2019-03-30T12:11:58.274Z,20.10
2019-03-30T12:14:28.873Z,20.20
2019-03-30T12:16:59.548Z,20.30
2019-03-30T12:19:30.405Z,20.50
2019-03-30T12:22:01.378Z,20.80
2019-03-30T12:24:32.420Z,20.70
2019-03-30T12:27:03.330Z,21.40
2019-03-30T12:29:34.154Z,20.90
2019-03-30T12:32:04.777Z,21.50
2019-03-30T12:34:35.835Z,20.20
2019-03-30T12:37:06.731Z,20.10
2019-03-30T12:39:37.387Z,21.10
2019-03-30T12:42:09.012Z,21.90
2019-03-30T12:44:39.794Z,21.30
2019-03-30T12:47:10.712Z,20.70
2019-03-30T12:49:45.235Z,21.20
2019-03-30T12:52:15.548Z,21.70
2019-03-30T12:54:46.460Z,20.90
2019-03-30T12:57:17.205Z,21.60
2019-03-30T12:59:47.933Z,22.10
2019-03-30T13:02:18.726Z,22.50
2019-03-30T13:04:50.023Z,20.60
2019-03-30T13:07:20.927Z,20.50
2019-03-30T13:09:51.804Z,21.70
2019-03-30T13:12:22.681Z,22.20
2019-03-30T13:14:53.636Z,21.80
2019-03-30T13:17:24.618Z,21.90
2019-03-30T13:19:55.738Z,22.40
2019-03-30T13:22:26.657Z,21.20
2019-03-30T13:24:57.545Z,20.80
2019-03-30T13:27:28.174Z,21.60
2019-03-30T13:29:59.062Z,21.90
2019-03-30T13:32:29.783Z,22.50
2019-03-30T13:35:00.820Z,24.20
2019-03-30T13:37:31.660Z,23.20
2019-03-30T13:40:02.411Z,23.50
2019-03-30T13:42:33.030Z,24.60
2019-03-30T13:45:04.475Z,24.60
2019-03-30T13:47:35.207Z,25.90
2019-03-30T13:50:08.041Z,25.60
2019-03-30T13:52:38.811Z,25.80
2019-03-30T13:55:10.049Z,26.30
2019-03-30T13:57:40.673Z,26.10
2019-03-30T14:00:11.921Z,26.10
2019-03-30T14:02:44.206Z,25.70
2019-03-30T14:05:15.375Z,25.40
2019-03-30T14:07:46.118Z,24.90
2019-03-30T14:10:17.602Z,25.20
2019-03-30T14:12:48.299Z,24.20
2019-03-30T14:15:20.088Z,25.00
2019-03-30T14:17:50.891Z,25.20
2019-03-30T14:20:21.965Z,26.30
2019-03-30T14:22:52.893Z,26.10
2019-03-30T14:25:23.829Z,25.60
2019-03-30T14:27:55.777Z,24.00
2019-03-30T14:30:26.462Z,24.40
2019-03-30T14:32:57.196Z,25.50
2019-03-30T14:35:28.014Z,25.90
2019-03-30T14:37:58.980Z,27.00
2019-03-30T14:40:31.064Z,26.50
2019-03-30T14:43:02.045Z,25.80
2019-03-30T14:45:32.625Z,25.20
2019-03-30T14:48:03.289Z,26.50
2019-03-30T14:50:35.187Z,26.40
2019-03-30T14:53:06.084Z,27.00
2019-03-30T14:55:40.945Z,27.60
2019-03-30T14:58:09.962Z,28.00
2019-03-30T15:00:40.620Z,28.30
2019-03-30T15:03:11.368Z,27.70
2019-03-30T15:05:42.158Z,27.70
2019-03-30T15:08:13.338Z,26.80
2019-03-30T15:10:44.139Z,26.00
2019-03-30T15:13:15.343Z,26.80
2019-03-30T15:15:46.137Z,27.60
2019-03-30T15:18:17.200Z,26.40
2019-03-30T15:20:48.183Z,27.00
2019-03-30T15:23:19.375Z,27.20
2019-03-30T15:25:51.272Z,27.60
2019-03-30T15:28:22.291Z,27.50
2019-03-30T15:30:53.234Z,27.30
2019-03-30T15:33:24.271Z,26.10
2019-03-30T15:35:55.131Z,27.20
2019-03-30T15:38:27.399Z,27.00
2019-03-30T15:40:58.495Z,27.40
2019-03-30T15:43:38.018Z,27.70
2019-03-30T15:46:03.018Z,27.80
2019-03-30T15:48:33.739Z,27.00
2019-03-30T15:51:04.436Z,26.70
2019-03-30T15:53:35.209Z,25.60
2019-03-30T15:56:05.811Z,26.20
2019-03-30T15:58:36.588Z,26.50
2019-03-30T16:01:07.379Z,26.80
2019-03-30T16:03:38.216Z,26.90
2019-03-30T16:06:09.557Z,26.00
2019-03-30T16:08:40.258Z,26.00
2019-03-30T16:11:11.566Z,25.80
2019-03-30T16:13:42.331Z,26.00
2019-03-30T16:16:13.227Z,25.90
2019-03-30T16:18:43.865Z,25.70
2019-03-30T16:21:14.497Z,25.30
2019-03-30T16:23:46.811Z,25.20
2019-03-30T16:26:17.732Z,25.20
2019-03-30T16:28:53.555Z,25.60
2019-03-30T16:31:25.369Z,25.70
2019-03-30T16:33:56.036Z,25.50
2019-03-30T16:36:26.725Z,24.90
2019-03-30T16:38:57.629Z,24.90
2019-03-30T16:41:28.872Z,25.10
2019-03-30T16:43:59.751Z,25.20
2019-03-30T16:46:30.567Z,24.60
2019-03-30T16:49:02.873Z,24.30
2019-03-30T16:51:33.590Z,23.90
2019-03-30T16:54:04.512Z,23.80
2019-03-30T16:56:35.555Z,24.00
2019-03-30T16:59:06.218Z,23.70
2019-03-30T17:01:36.969Z,23.40
2019-03-30T17:04:10.679Z,23.30
2019-03-30T17:06:41.668Z,23.10
2019-03-30T17:09:12.913Z,22.70
2019-03-30T17:11:43.590Z,22.60
2019-03-30T17:14:14.591Z,22.50
2019-03-30T17:16:45.590Z,22.20
2019-03-30T17:19:17.324Z,22.10
2019-03-30T17:21:48.070Z,21.60
2019-03-30T17:24:19.005Z,20.90
2019-03-30T17:26:49.685Z,20.20
2019-03-30T17:29:21.004Z,20.10
2019-03-30T17:31:51.792Z,20.00
2019-03-30T17:34:23.050Z,19.70
2019-03-30T17:36:53.867Z,19.30
2019-03-30T17:39:24.795Z,19.10
2019-03-30T17:41:55.615Z,18.60
2019-03-30T17:44:26.305Z,18.20
2019-03-30T17:46:57.005Z,18.00
2019-03-30T17:49:27.935Z,17.80
2019-03-30T17:51:58.780Z,17.50
2019-03-30T17:54:30.845Z,17.00
2019-03-30T17:57:01.723Z,16.80
2019-03-30T17:59:32.381Z,16.70
2019-03-30T18:02:04.609Z,16.40
2019-03-30T18:04:38.784Z,16.20
2019-03-30T18:07:13.438Z,16.10
2019-03-30T18:09:42.860Z,15.80
2019-03-30T18:12:14.014Z,15.80
2019-03-30T18:14:44.854Z,15.80
2019-03-30T18:17:16.381Z,15.80
2019-03-30T18:19:47.217Z,15.70
2019-03-30T18:22:18.014Z,15.50
2019-03-30T18:24:48.865Z,14.60
2019-03-30T18:27:20.291Z,14.20
2019-03-30T18:29:51.184Z,14.20
2019-03-30T18:32:22.054Z,13.90
2019-03-30T18:34:52.950Z,13.60
2019-03-30T18:37:25.124Z,13.30
2019-03-30T18:39:56.116Z,13.20
2019-03-30T18:42:28.698Z,13.00
2019-03-30T18:45:00.360Z,12.80
2019-03-30T18:47:31.229Z,12.90
2019-03-30T18:50:02.030Z,12.70
2019-03-30T18:52:34.539Z,12.30
2019-03-30T18:55:05.714Z,12.10
2019-03-30T18:57:36.519Z,12.10
2019-03-30T19:00:07.418Z,12.10
2019-03-30T19:02:39.026Z,12.00
2019-03-30T19:05:10.551Z,11.90
2019-03-30T19:07:41.274Z,11.70
2019-03-30T19:10:12.209Z,11.70
2019-03-30T19:12:43.132Z,11.60
2019-03-30T19:15:14.005Z,11.70
2019-03-30T19:17:44.714Z,11.40
2019-03-30T19:20:15.620Z,11.10
2019-03-30T19:22:47.492Z,10.90
2019-03-30T19:25:18.490Z,10.80
2019-03-30T19:27:49.510Z,10.70
2019-03-30T19:30:20.695Z,10.80
2019-03-30T19:32:52.648Z,10.70
2019-03-30T19:35:23.340Z,10.60
2019-03-30T19:37:54.204Z,10.50
2019-03-30T19:40:25.168Z,10.40
2019-03-30T19:42:56.190Z,10.30
2019-03-30T19:45:27.304Z,10.10
2019-03-30T19:47:58.321Z,9.90
2019-03-30T19:50:29.146Z,9.70
2019-03-30T19:52:59.872Z,9.50
2019-03-30T19:55:30.540Z,9.20
2019-03-30T19:58:01.217Z,8.80
2019-03-30T20:00:32.650Z,8.50
2019-03-30T20:03:03.410Z,8.40
2019-03-30T20:05:34.186Z,8.20
2019-03-30T20:08:12.044Z,8.10
2019-03-30T20:10:38.062Z,8.10
2019-03-30T20:13:09.305Z,8.10
2019-03-30T20:15:40.308Z,8.10
2019-03-30T20:18:11.388Z,8.20
2019-03-30T20:20:42.168Z,8.10
2019-03-30T20:23:12.771Z,8.10
2019-03-30T20:25:43.494Z,8.00
2019-03-30T20:28:14.415Z,7.90
2019-03-30T20:30:45.187Z,7.70
2019-03-30T20:33:16.389Z,7.70
2019-03-30T20:35:47.670Z,7.60
2019-03-30T20:38:19.499Z,7.60
2019-03-30T20:40:50.307Z,7.60
2019-03-30T20:43:21.305Z,7.60
2019-03-30T20:45:52.213Z,7.50
2019-03-30T20:48:22.980Z,7.40
2019-03-30T20:50:57.742Z,7.40
2019-03-30T20:53:28.749Z,7.40
2019-03-30T20:55:59.473Z,7.30
2019-03-30T20:58:32.280Z,7.20
2019-03-30T21:01:05.740Z,7.10
2019-03-30T21:03:43.714Z,7.00
2019-03-30T21:06:16.548Z,6.90
2019-03-30T21:08:48.604Z,6.80
2019-03-30T21:11:21.076Z,6.70
2019-03-30T21:13:51.786Z,6.70
2019-03-30T21:16:22.909Z,6.60
2019-03-30T21:18:53.585Z,6.50
2019-03-30T21:21:25.799Z,6.50
2019-03-30T21:23:56.468Z,6.40
2019-03-30T21:26:37.287Z,6.30
2019-03-30T21:29:12.636Z,6.30
2019-03-30T21:31:43.338Z,6.40
2019-03-30T21:34:14.083Z,6.30
2019-03-30T21:36:44.803Z,6.20
2019-03-30T21:39:15.681Z,6.20
2019-03-30T21:41:46.552Z,6.00
2019-03-30T21:44:29.042Z,5.80
2019-03-30T21:47:01.454Z,5.70
2019-03-30T21:49:34.000Z,5.70
2019-03-30T21:52:08.215Z,5.50
2019-03-30T21:54:52.121Z,5.40
2019-03-30T21:57:22.753Z,5.30
2019-03-30T21:59:53.672Z,5.40
2019-03-30T22:02:34.015Z,5.40
2019-03-30T22:05:08.919Z,5.50
2019-03-30T22:07:40.223Z,5.50
2019-03-30T22:10:13.828Z,5.50
2019-03-30T22:12:44.630Z,5.60
2019-03-30T22:15:17.391Z,5.70
2019-03-30T22:17:48.107Z,5.70
2019-03-30T22:20:21.281Z,5.80
2019-03-30T22:22:51.323Z,5.70
2019-03-30T22:25:22.029Z,5.70
2019-03-30T22:27:52.600Z,5.70
2019-03-30T22:30:25.294Z,5.60
2019-03-30T22:32:56.129Z,5.60
2019-03-30T22:35:26.877Z,5.60
2019-03-30T22:37:57.717Z,5.50
2019-03-30T22:40:28.420Z,5.40
2019-03-30T22:42:59.284Z,5.40
2019-03-30T22:45:29.811Z,5.40
2019-03-30T22:48:00.421Z,5.40
2019-03-30T22:50:31.388Z,5.40
2019-03-30T22:53:01.995Z,5.30
2019-03-30T22:55:32.927Z,5.40
2019-03-30T22:58:03.729Z,5.30
2019-03-30T23:00:45.476Z,5.30
2019-03-30T23:03:16.534Z,5.20
2019-03-30T23:05:47.236Z,4.90
2019-03-30T23:08:17.907Z,4.80
2019-03-30T23:10:48.844Z,4.70
2019-03-30T23:13:19.643Z,4.50
2019-03-30T23:15:50.238Z,4.50
2019-03-30T23:18:20.930Z,4.40
2019-03-30T23:20:51.850Z,4.40
2019-03-30T23:23:23.991Z,4.20
2019-03-30T23:25:55.023Z,4.10
2019-03-30T23:28:26.018Z,4.10
2019-03-30T23:30:57.079Z,4.00
2019-03-30T23:33:27.907Z,4.00
2019-03-30T23:35:58.708Z,4.00
2019-03-30T23:38:29.464Z,4.00
2019-03-30T23:41:00.081Z,4.10
2019-03-30T23:43:30.954Z,4.10
2019-03-30T23:46:01.871Z,4.20
2019-03-30T23:48:32.463Z,4.40
2019-03-30T23:51:03.164Z,4.40
2019-03-30T23:53:33.989Z,4.40
2019-03-30T23:56:06.066Z,4.40
2019-03-30T23:58:36.907Z,4.30
